Time;durP1;ratioP1;P1;durP2;ratioP2;P2;SDS_P1;SDS_P2;PMS_P1;PMS_P2;Temp;Humidity;BMP_temperature;BMP_pressure;BME280_temperature;BME280_humidity;BME280_pressure;Samples;Min_cycle;Max_cycle;Signal;HPM_P1;HPM_P2
2022/01/27 00:03:20;;;;;;;10.80;8.43;;;3.20;99.90;;;;;;6273950;22;20229;-94
2022/01/27 00:05:55;;;;;;;11.83;8.70;;;3.20;99.90;;;;;;6271409;22;20176;-93
2022/01/27 00:08:30;;;;;;;11.23;8.17;;;3.20;99.90;;;;;;6269484;22;20198;-94
2022/01/27 00:11:08;;;;;;;11.90;8.13;;;3.10;99.90;;;;;;6270669;22;20202;-94
2022/01/27 00:13:47;;;;;;;11.73;8.17;;;3.00;99.90;;;;;;6265605;23;20167;-93
2022/01/27 00:16:41;;;;;;;12.30;8.57;;;2.90;99.90;;;;;;6257535;22;20198;31
2022/01/27 00:19:15;;;;;;;11.43;8.83;;;2.90;99.90;;;;;;6298849;22;20171;-92
2022/01/27 00:21:47;;;;;;;12.10;8.87;;;2.80;99.90;;;;;;6294483;22;20190;-84
2022/01/27 00:24:19;;;;;;;11.23;8.60;;;2.80;99.90;;;;;;6242426;23;20164;-92
2022/01/27 00:26:53;;;;;;;13.60;9.63;;;2.70;99.90;;;;;;6241532;23;20191;-93
2022/01/27 00:29:24;;;;;;;13.87;8.87;;;2.60;99.90;;;;;;6242272;23;20153;-93
2022/01/27 00:34:33;;;;;;;11.53;8.57;;;2.50;99.90;;;;;;6270878;22;20206;-93
2022/01/27 00:37:05;;;;;;;10.53;8.13;;;2.50;99.90;;;;;;6270831;23;20168;-93
2022/01/27 00:39:37;;;;;;;12.40;9.27;;;2.40;99.90;;;;;;6271189;22;20168;-94
2022/01/27 00:44:44;;;;;;;15.87;8.27;;;2.30;99.90;;;;;;6324056;22;20181;-94
2022/01/27 00:47:16;;;;;;;10.70;8.20;;;2.30;99.90;;;;;;6270223;22;20238;-93
2022/01/27 00:49:50;;;;;;;9.87;7.47;;;2.20;99.90;;;;;;6259406;22;20195;-94
2022/01/27 00:52:28;;;;;;;11.03;8.20;;;2.20;99.90;;;;;;6262497;22;20176;-94
2022/01/27 00:54:59;;;;;;;11.10;8.50;;;2.10;99.90;;;;;;6272453;22;20160;-93
2022/01/27 00:57:42;;;;;;;11.87;8.53;;;2.10;99.90;;;;;;6266440;23;20524;-94
2022/01/27 01:00:21;;;;;;;11.40;9.00;;;2.00;99.90;;;;;;6266333;22;20222;-93
2022/01/27 01:02:58;;;;;;;12.40;8.77;;;1.90;99.90;;;;;;6271953;22;20202;-94
2022/01/27 01:16:53;;;;;;;13.13;9.43;;;1.90;99.90;;;;;;6288816;22;20195;-94
2022/01/27 01:19:35;;;;;;;13.93;9.93;;;1.90;99.90;;;;;;6367500;22;20153;-94
2022/01/27 01:29:25;;;;;;;13.77;9.17;;;1.90;99.90;;;;;;6340829;22;20165;-93
2022/01/27 01:30:52;;;;;;;16.97;9.50;;;1.90;99.90;;;;;;6360774;22;20194;-94
2022/01/27 01:33:31;;;;;;;13.77;9.23;;;1.90;99.90;;;;;;6363002;22;20166;-93
2022/01/27 01:36:14;;;;;;;14.00;9.93;;;1.90;99.90;;;;;;6339045;22;20157;-93
2022/01/27 01:38:46;;;;;;;13.43;9.60;;;1.90;99.90;;;;;;6356025;22;20184;-94
2022/01/27 01:41:20;;;;;;;13.53;10.20;;;1.90;99.90;;;;;;6358722;22;20173;-94
2022/01/27 01:46:33;;;;;;;16.17;9.47;;;1.90;99.90;;;;;;6300331;22;20210;-94
2022/01/27 01:49:05;;;;;;;15.17;10.27;;;1.90;99.90;;;;;;6278135;22;20164;-93
2022/01/27 01:51:38;;;;;;;14.87;10.17;;;1.90;99.90;;;;;;6302645;22;20236;-92
2022/01/27 01:54:11;;;;;;;14.97;10.77;;;2.00;99.90;;;;;;6275770;22;20175;-92
2022/01/27 01:56:45;;;;;;;14.50;10.33;;;1.90;99.90;;;;;;6302089;22;20182;-94
2022/01/27 01:59:19;;;;;;;18.00;11.30;;;1.90;99.90;;;;;;6299573;22;20239;-93
2022/01/27 02:01:51;;;;;;;16.50;11.23;;;1.90;99.90;;;;;;6273042;22;20174;-93
2022/01/27 02:04:23;;;;;;;14.80;10.13;;;1.90;99.90;;;;;;6302435;22;20159;-92
2022/01/27 02:06:58;;;;;;;19.43;11.23;;;1.90;99.90;;;;;;6301192;22;20223;-94
2022/01/27 02:18:07;;;;;;;22.70;12.40;;;1.90;99.90;;;;;;6261342;22;20554;-93
2022/01/27 02:20:43;;;;;;;16.93;12.30;;;1.90;99.90;;;;;;6267875;23;20254;-94
2022/01/27 02:26:06;;;;;;;18.83;12.13;;;2.00;99.90;;;;;;6270184;22;20222;-93
2022/01/27 02:28:38;;;;;;;16.83;11.63;;;1.90;99.90;;;;;;6273071;22;20227;-94
2022/01/27 02:31:10;;;;;;;19.90;11.67;;;1.90;99.90;;;;;;6271855;22;20215;-93
2022/01/27 02:33:42;;;;;;;34.67;12.07;;;1.90;99.90;;;;;;6273519;22;20183;-93
2022/01/27 02:36:15;;;;;;;20.83;12.63;;;1.90;99.90;;;;;;6273555;22;20190;-94
2022/01/27 02:41:19;;;;;;;21.40;11.73;;;1.90;99.90;;;;;;6331251;22;20166;-92
2022/01/27 02:43:51;;;;;;;27.70;13.80;;;1.80;99.90;;;;;;6332408;22;20178;-93
2022/01/27 02:46:27;;;;;;;32.73;12.63;;;1.90;99.90;;;;;;6331816;22;20178;-93
2022/01/27 02:49:00;;;;;;;55.80;13.67;;;1.90;99.90;;;;;;6331617;22;20248;-93
2022/01/27 02:54:19;;;;;;;20.20;12.73;;;1.90;99.90;;;;;;6294609;22;20224;-93
2022/01/27 02:56:50;;;;;;;35.43;12.47;;;1.90;99.90;;;;;;6299143;22;20171;-93
2022/01/27 02:59:24;;;;;;;83.87;15.70;;;1.80;99.90;;;;;;6300875;22;20175;-94
2022/01/27 03:01:59;;;;;;;22.80;13.13;;;1.90;99.90;;;;;;6298433;22;20155;-93
2022/01/27 03:04:30;;;;;;;32.73;13.77;;;1.90;99.90;;;;;;6299275;22;20209;-93
2022/01/27 03:07:05;;;;;;;67.43;15.17;;;1.90;99.90;;;;;;6298205;22;20227;-93
2022/01/27 03:09:37;;;;;;;36.73;13.73;;;1.80;99.90;;;;;;6298889;22;20194;-94
2022/01/27 03:12:11;;;;;;;28.87;13.90;;;1.80;99.90;;;;;;6297149;22;20211;-94
2022/01/27 03:14:43;;;;;;;26.37;13.60;;;1.90;99.90;;;;;;6297313;22;20164;-94
2022/01/27 03:17:15;;;;;;;38.43;14.23;;;1.90;99.90;;;;;;6295275;22;20656;-92
2022/01/27 03:19:47;;;;;;;37.80;13.60;;;1.90;99.90;;;;;;6298172;22;20170;-94
2022/01/27 03:22:21;;;;;;;48.53;15.00;;;1.90;99.90;;;;;;6297637;22;20159;-94
2022/01/27 03:24:55;;;;;;;41.23;14.97;;;1.90;99.90;;;;;;6299175;22;20230;-94
2022/01/27 03:27:28;;;;;;;31.63;14.33;;;1.90;99.90;;;;;;6301534;22;20167;-92
2022/01/27 03:29:59;;;;;;;34.53;14.03;;;1.90;99.90;;;;;;6304316;22;20179;-92
2022/01/27 03:32:55;;;;;;;91.27;16.90;;;1.90;99.90;;;;;;6304059;22;20190;-94
2022/01/27 03:35:27;;;;;;;98.33;14.63;;;1.90;99.90;;;;;;6303938;22;20250;-93
2022/01/27 03:38:03;;;;;;;70.97;15.73;;;1.80;99.90;;;;;;6303148;22;20277;-94
2022/01/27 03:45:59;;;;;;;83.80;14.93;;;1.80;99.90;;;;;;6308629;22;20281;-93
2022/01/27 03:48:34;;;;;;;66.27;14.60;;;1.80;99.90;;;;;;6266835;23;20179;-93
2022/01/27 03:51:06;;;;;;;90.17;16.03;;;1.90;99.90;;;;;;6268802;22;20195;-94
2022/01/27 03:53:40;;;;;;;67.30;13.87;;;1.90;99.90;;;;;;6269311;22;20192;-93
2022/01/27 03:56:13;;;;;;;47.67;13.80;;;1.80;99.90;;;;;;6266355;23;20175;-93
2022/01/27 03:58:45;;;;;;;40.90;12.77;;;1.80;99.90;;;;;;6276740;22;20219;-94
2022/01/27 04:01:19;;;;;;;85.60;15.23;;;1.80;99.90;;;;;;6265683;23;20186;-94
2022/01/27 04:03:53;;;;;;;38.63;14.83;;;1.80;99.90;;;;;;6267654;22;20208;-95
2022/01/27 04:06:33;;;;;;;78.33;13.83;;;1.80;99.90;;;;;;6268841;23;20175;-93
2022/01/27 04:09:08;;;;;;;56.47;14.53;;;1.70;99.90;;;;;;6264747;23;20190;-94
2022/01/27 04:11:41;;;;;;;104.57;14.87;;;1.80;99.90;;;;;;6258062;22;20226;-94
2022/01/27 04:14:13;;;;;;;45.37;12.30;;;1.80;99.90;;;;;;6264675;23;20688;-93
2022/01/27 04:16:46;;;;;;;32.03;12.97;;;1.80;99.90;;;;;;6261742;23;20190;-93
2022/01/27 04:19:17;;;;;;;79.83;13.60;;;1.80;99.90;;;;;;6268730;23;20334;-92
2022/01/27 04:21:52;;;;;;;40.97;12.80;;;1.90;99.90;;;;;;6260647;23;20182;-92
2022/01/27 04:24:25;;;;;;;75.57;14.63;;;1.80;99.90;;;;;;6266358;22;20195;-93
2022/01/27 04:27:02;;;;;;;39.30;13.20;;;1.80;99.90;;;;;;6253988;23;20172;-92
2022/01/27 04:29:37;;;;;;;66.73;13.97;;;1.80;99.90;;;;;;6264114;22;20195;-92
2022/01/27 04:32:13;;;;;;;43.50;13.00;;;1.90;99.90;;;;;;6257298;22;20274;-93
2022/01/27 04:34:43;;;;;;;35.07;13.37;;;1.90;99.90;;;;;;6254624;22;20227;-93
2022/01/27 04:37:15;;;;;;;36.30;14.47;;;1.80;99.90;;;;;;6253296;22;20190;-93
2022/01/27 04:39:57;;;;;;;66.83;15.17;;;1.70;99.90;;;;;;6267470;22;20245;-92
2022/01/27 04:42:38;;;;;;;53.13;14.80;;;1.80;99.90;;;;;;6268363;22;20622;-94
2022/01/27 04:45:20;;;;;;;23.37;12.87;;;1.80;99.90;;;;;;6260508;23;20183;-94
2022/01/27 04:47:58;;;;;;;58.27;13.77;;;1.80;99.90;;;;;;6261035;22;20178;-93
2022/01/27 04:50:29;;;;;;;37.17;12.60;;;1.80;99.90;;;;;;6263398;23;20182;-93
2022/01/27 04:55:39;;;;;;;31.47;14.10;;;1.70;99.90;;;;;;6252151;22;21617;-89
2022/01/27 04:58:19;;;;;;;96.60;15.80;;;1.70;99.90;;;;;;6272522;23;20182;-93
2022/01/27 05:00:52;;;;;;;113.33;15.43;;;1.70;99.90;;;;;;6266546;22;20225;-93
2022/01/27 05:03:34;;;;;;;143.63;17.13;;;1.70;99.90;;;;;;6263741;22;20165;-93
2022/01/27 05:06:06;;;;;;;130.33;18.90;;;1.60;99.90;;;;;;6271893;22;20159;-93
2022/01/27 05:11:22;;;;;;;102.77;15.70;;;1.60;99.90;;;;;;6273302;22;20263;-92
2022/01/27 05:13:58;;;;;;;87.83;14.37;;;1.60;99.90;;;;;;6268143;22;20183;-89
2022/01/27 05:16:30;;;;;;;141.77;16.53;;;1.60;99.90;;;;;;6258973;23;20179;-94
2022/01/27 05:19:01;;;;;;;108.83;14.77;;;1.60;99.90;;;;;;6254384;23;20579;-94
2022/01/27 05:21:34;;;;;;;237.67;20.20;;;1.60;99.90;;;;;;6255117;22;20222;-93
2022/01/27 05:24:07;;;;;;;73.20;14.57;;;1.50;99.90;;;;;;6253908;23;20243;-93
2022/01/27 05:26:43;;;;;;;288.63;20.97;;;1.60;99.90;;;;;;6254446;23;20175;-94
2022/01/27 05:29:15;;;;;;;196.97;17.40;;;1.60;99.90;;;;;;6254739;22;20198;-94
2022/01/27 05:31:46;;;;;;;357.93;24.47;;;1.50;99.90;;;;;;6255665;22;20218;-93
2022/01/27 05:34:17;;;;;;;248.27;19.73;;;1.50;99.90;;;;;;6255317;22;20164;-94
2022/01/27 05:36:48;;;;;;;429.10;26.33;;;1.40;99.90;;;;;;6260501;22;20495;-94
2022/01/27 05:39:20;;;;;;;304.50;23.50;;;1.30;99.90;;;;;;6260077;22;20485;-94
2022/01/27 05:41:57;;;;;;;474.77;31.13;;;1.30;99.90;;;;;;6262759;23;20164;-94
2022/01/27 05:44:31;;;;;;;283.03;20.33;;;1.40;99.90;;;;;;6261047;22;20181;-94
2022/01/27 05:47:02;;;;;;;455.50;30.10;;;1.40;99.90;;;;;;6273038;22;20168;-95
2022/01/27 05:49:33;;;;;;;240.73;19.90;;;1.30;99.90;;;;;;6273556;22;20159;-95
2022/01/27 05:52:06;;;;;;;294.07;21.23;;;1.30;99.90;;;;;;6272077;22;20191;-94
2022/01/27 05:54:37;;;;;;;274.20;21.87;;;1.40;99.90;;;;;;6273411;22;20163;-94
2022/01/27 05:57:12;;;;;;;529.20;32.33;;;1.40;99.90;;;;;;6265686;22;20534;-95
2022/01/27 05:59:45;;;;;;;381.50;29.23;;;1.50;99.90;;;;;;6260136;23;20244;-93
2022/01/27 06:02:17;;;;;;;496.97;29.77;;;1.50;99.90;;;;;;6260548;23;20180;-95
2022/01/27 06:04:49;;;;;;;456.70;26.70;;;1.50;99.90;;;;;;6259576;22;20172;-94
2022/01/27 06:07:20;;;;;;;683.57;36.80;;;1.50;99.90;;;;;;6259789;22;20179;-96
2022/01/27 06:09:52;;;;;;;688.07;36.43;;;1.50;99.90;;;;;;6274031;22;20198;-94
2022/01/27 06:12:25;;;;;;;407.20;26.33;;;1.40;99.90;;;;;;6289016;22;20210;-94
2022/01/27 06:14:59;;;;;;;359.67;25.07;;;1.40;99.90;;;;;;6290415;22;20174;-95
2022/01/27 06:17:32;;;;;;;352.47;25.30;;;1.50;99.90;;;;;;6263960;22;20213;-94
2022/01/27 06:20:03;;;;;;;380.63;25.93;;;1.40;99.90;;;;;;6291275;22;20183;-94
2022/01/27 06:22:34;;;;;;;462.57;26.67;;;1.40;99.90;;;;;;6289313;22;20163;-94
2022/01/27 06:25:07;;;;;;;216.87;18.63;;;1.40;99.90;;;;;;6288568;22;20193;-94
2022/01/27 06:27:41;;;;;;;352.63;24.90;;;1.40;99.90;;;;;;6286208;22;20175;-94
2022/01/27 06:30:13;;;;;;;408.37;25.17;;;1.40;99.90;;;;;;6290697;22;20167;-94
2022/01/27 06:32:46;;;;;;;386.00;24.33;;;1.40;99.90;;;;;;6287212;22;20198;-95
2022/01/27 06:35:18;;;;;;;401.77;25.33;;;1.30;99.90;;;;;;6292848;22;20174;-94
2022/01/27 06:37:49;;;;;;;373.47;23.17;;;1.30;99.90;;;;;;6292054;22;20174;-93
2022/01/27 06:40:20;;;;;;;363.53;24.07;;;1.30;99.90;;;;;;6294934;22;20269;-95
2022/01/27 06:42:54;;;;;;;470.40;25.13;;;1.30;99.90;;;;;;6292857;22;20178;-93
2022/01/27 06:45:25;;;;;;;286.50;22.33;;;1.30;99.90;;;;;;6294209;22;20192;-94
2022/01/27 06:47:56;;;;;;;183.73;16.10;;;1.20;99.90;;;;;;6267724;22;20155;-94
2022/01/27 06:50:31;;;;;;;324.70;21.03;;;1.20;99.90;;;;;;6295337;22;20171;-95
2022/01/27 06:53:02;;;;;;;201.27;17.23;;;1.10;99.90;;;;;;6303243;22;20201;-92
2022/01/27 06:55:34;;;;;;;224.30;20.23;;;1.20;99.90;;;;;;6303039;22;20163;-93
2022/01/27 06:58:10;;;;;;;312.20;20.13;;;1.10;99.90;;;;;;6301888;22;20179;-91
2022/01/27 07:00:41;;;;;;;436.90;26.37;;;1.10;99.90;;;;;;6303090;22;20179;-94
2022/01/27 07:03:13;;;;;;;221.10;19.03;;;1.20;99.90;;;;;;6289047;22;20186;-94
2022/01/27 07:05:44;;;;;;;413.93;24.43;;;1.20;99.90;;;;;;6301875;22;20175;-93
2022/01/27 07:08:16;;;;;;;258.10;18.93;;;1.20;99.90;;;;;;6298599;22;20226;-93
2022/01/27 07:10:47;;;;;;;206.47;17.53;;;1.10;99.90;;;;;;6291768;22;20217;-96
2022/01/27 07:13:20;;;;;;;265.00;18.37;;;1.10;99.90;;;;;;6292057;22;20210;-93
2022/01/27 07:15:51;;;;;;;272.60;21.07;;;1.10;99.90;;;;;;6290910;22;20182;-92
2022/01/27 07:18:23;;;;;;;490.40;25.90;;;1.10;99.90;;;;;;6289387;22;20174;-94
2022/01/27 07:20:55;;;;;;;167.10;15.70;;;1.00;99.90;;;;;;6287276;22;20171;-92
2022/01/27 07:23:26;;;;;;;303.93;22.13;;;1.00;99.90;;;;;;6289723;22;20168;-92
2022/01/27 07:25:58;;;;;;;261.47;18.73;;;1.00;99.90;;;;;;6289236;22;20575;-95
2022/01/27 07:28:33;;;;;;;227.83;17.83;;;1.00;99.90;;;;;;6267168;22;20170;-95
2022/01/27 07:31:11;;;;;;;189.03;15.70;;;0.90;99.90;;;;;;6299197;22;20192;-95
2022/01/27 07:33:44;;;;;;;119.50;14.13;;;0.90;99.90;;;;;;6291196;22;20225;-95
2022/01/27 07:36:16;;;;;;;60.70;11.20;;;0.90;99.90;;;;;;6292664;22;20185;-95
2022/01/27 07:38:49;;;;;;;215.57;18.37;;;0.90;99.90;;;;;;6289834;22;20178;-94
2022/01/27 07:41:21;;;;;;;53.20;11.37;;;0.90;99.90;;;;;;6289203;22;20167;-96
2022/01/27 07:43:54;;;;;;;223.17;20.00;;;1.00;99.90;;;;;;6285805;22;20474;-94
2022/01/27 07:46:25;;;;;;;201.30;19.07;;;1.00;99.90;;;;;;6285181;22;20174;-95
2022/01/27 07:48:57;;;;;;;167.07;15.50;;;1.00;99.90;;;;;;6286278;22;20178;-94
2022/01/27 07:51:28;;;;;;;147.00;15.93;;;1.00;99.90;;;;;;6285988;22;20508;-93
2022/01/27 07:54:00;;;;;;;203.83;18.03;;;1.00;99.90;;;;;;6286361;22;20195;-95
2022/01/27 07:56:34;;;;;;;163.63;14.97;;;1.00;99.90;;;;;;6287449;22;20174;-95
2022/01/27 07:59:07;;;;;;;429.37;26.83;;;0.90;99.90;;;;;;6287496;22;20175;-95
2022/01/27 08:01:38;;;;;;;246.57;17.93;;;1.00;99.90;;;;;;6287199;22;20179;-94
2022/01/27 08:04:11;;;;;;;256.87;19.80;;;1.00;99.90;;;;;;6297985;22;20167;-95
2022/01/27 08:06:42;;;;;;;285.90;22.40;;;0.90;99.90;;;;;;6303891;22;20185;-95
2022/01/27 08:09:13;;;;;;;205.73;16.90;;;0.90;99.90;;;;;;6304533;22;20186;-95
2022/01/27 08:11:45;;;;;;;217.53;16.73;;;0.90;99.90;;;;;;6302366;22;20164;-94
2022/01/27 08:14:17;;;;;;;172.93;15.70;;;0.90;99.90;;;;;;6264685;22;20232;-93
2022/01/27 08:16:48;;;;;;;208.93;17.10;;;0.80;99.90;;;;;;6284238;22;20179;-94
2022/01/27 08:19:19;;;;;;;52.30;11.57;;;0.90;99.90;;;;;;6286946;22;20177;-93
2022/01/27 08:21:50;;;;;;;136.70;15.03;;;0.80;99.90;;;;;;6284829;22;20179;-94
2022/01/27 08:24:22;;;;;;;163.07;14.50;;;0.80;99.90;;;;;;6284813;22;20175;-93
2022/01/27 08:26:59;;;;;;;224.77;14.33;;;0.80;99.90;;;;;;6284701;22;20281;-94
2022/01/27 08:29:37;;;;;;;176.93;15.07;;;0.80;99.90;;;;;;6284320;22;20178;-94
2022/01/27 08:32:32;;;;;;;97.87;12.30;;;0.80;99.90;;;;;;6284448;22;20210;-95
2022/01/27 08:35:05;;;;;;;53.03;13.30;;;0.80;99.90;;;;;;6284449;22;20202;-94
2022/01/27 08:37:37;;;;;;;71.27;11.50;;;0.70;99.90;;;;;;6283467;22;20167;-93
2022/01/27 08:40:10;;;;;;;132.80;13.27;;;0.70;99.90;;;;;;6284441;22;20170;-93
2022/01/27 08:43:01;;;;;;;68.60;11.93;;;0.70;99.90;;;;;;6284464;22;20179;-93
2022/01/27 08:45:34;;;;;;;232.63;17.57;;;0.70;99.90;;;;;;6283751;22;20202;-94
2022/01/27 08:48:09;;;;;;;129.37;13.37;;;0.70;99.90;;;;;;6282171;22;20278;-96
2022/01/27 08:50:40;;;;;;;81.43;11.43;;;0.70;99.90;;;;;;6283101;22;20174;-94
2022/01/27 08:53:12;;;;;;;91.63;13.00;;;0.70;99.90;;;;;;6283713;22;20481;-94
2022/01/27 08:55:46;;;;;;;148.47;14.73;;;0.70;99.90;;;;;;6284327;22;20528;-94
2022/01/27 08:58:16;;;;;;;62.07;10.83;;;0.80;99.90;;;;;;6282247;22;20167;-94
2022/01/27 09:00:49;;;;;;;77.53;10.77;;;0.80;99.90;;;;;;6283767;22;20194;-93
2022/01/27 09:03:22;;;;;;;166.57;17.50;;;0.80;99.90;;;;;;6283902;22;20166;-94
2022/01/27 09:05:53;;;;;;;57.93;9.80;;;0.80;99.90;;;;;;6283222;22;20263;-93
2022/01/27 09:08:27;;;;;;;323.93;21.03;;;0.80;99.90;;;;;;6262322;22;20214;-94
2022/01/27 09:10:58;;;;;;;348.97;21.57;;;0.70;99.90;;;;;;6283679;22;20197;-93
2022/01/27 09:13:30;;;;;;;168.87;15.40;;;0.70;99.90;;;;;;6283012;22;20182;-92
2022/01/27 09:16:03;;;;;;;225.87;14.37;;;0.60;99.90;;;;;;6283689;22;20170;-94
2022/01/27 09:18:34;;;;;;;133.70;12.30;;;0.60;99.90;;;;;;6283161;22;20244;-94
2022/01/27 09:21:10;;;;;;;163.40;13.33;;;0.60;99.90;;;;;;6284081;22;20178;-94
2022/01/27 09:23:42;;;;;;;247.87;19.13;;;0.50;99.90;;;;;;6283704;22;20175;-93
2022/01/27 09:26:38;;;;;;;188.43;14.90;;;0.50;99.90;;;;;;6257215;22;20166;-94
2022/01/27 09:29:03;;;;;;;208.73;14.10;;;0.40;99.90;;;;;;6285247;22;20602;-94
2022/01/27 09:31:37;;;;;;;363.10;19.17;;;0.50;99.90;;;;;;6283176;22;20205;-94
2022/01/27 09:34:14;;;;;;;189.83;13.70;;;0.50;99.90;;;;;;6283257;22;20208;-92
2022/01/27 09:36:46;;;;;;;206.40;15.33;;;0.50;99.90;;;;;;6283732;22;20182;-93
2022/01/27 09:39:18;;;;;;;348.40;21.17;;;0.50;99.90;;;;;;6288529;22;20171;-94
2022/01/27 09:41:50;;;;;;;176.23;13.87;;;0.40;99.90;;;;;;6284330;22;20179;-95
2022/01/27 09:44:23;;;;;;;319.97;19.27;;;0.40;99.90;;;;;;6286051;22;20182;-94
2022/01/27 09:47:00;;;;;;;441.73;21.20;;;0.40;99.90;;;;;;6284552;22;20174;-95
2022/01/27 09:49:36;;;;;;;309.97;19.67;;;0.50;99.90;;;;;;6283532;22;20177;-94
2022/01/27 09:52:08;;;;;;;534.97;29.10;;;0.40;99.90;;;;;;6285501;22;20171;-94
2022/01/27 09:54:40;;;;;;;495.13;24.93;;;0.30;99.90;;;;;;6284042;22;20207;-94
2022/01/27 09:57:11;;;;;;;275.90;17.17;;;0.30;99.90;;;;;;6283423;22;20193;-94
2022/01/27 09:59:43;;;;;;;289.17;16.20;;;0.20;99.90;;;;;;6283792;22;20201;-93
2022/01/27 10:02:21;;;;;;;229.30;17.20;;;0.20;99.90;;;;;;6284177;22;20206;-94
2022/01/27 10:04:53;;;;;;;342.10;18.67;;;0.20;99.90;;;;;;6284676;22;20193;-94
2022/01/27 10:07:29;;;;;;;361.53;20.43;;;0.20;99.90;;;;;;6285404;22;20209;-93
2022/01/27 10:10:06;;;;;;;432.23;23.90;;;0.20;99.90;;;;;;6283701;22;20192;-94
2022/01/27 10:12:41;;;;;;;274.57;15.07;;;0.20;99.90;;;;;;6302077;22;20212;-93
2022/01/27 10:15:14;;;;;;;415.83;22.67;;;0.20;99.90;;;;;;6277605;22;20191;-95
2022/01/27 10:18:08;;;;;;;439.67;22.17;;;0.20;99.90;;;;;;6276844;22;20158;-94
2022/01/27 10:20:40;;;;;;;495.80;26.17;;;0.30;99.90;;;;;;6303778;22;20178;-93
2022/01/27 10:23:19;;;;;;;421.20;26.33;;;0.40;99.90;;;;;;6304618;22;20201;-93
2022/01/27 10:25:55;;;;;;;402.27;22.07;;;0.30;99.90;;;;;;6304343;22;20182;-95
2022/01/27 10:28:34;;;;;;;615.23;28.70;;;0.30;99.90;;;;;;6302131;22;20220;-94
2022/01/27 10:31:09;;;;;;;371.03;25.70;;;0.20;99.90;;;;;;6300011;22;20170;-94
2022/01/27 10:34:04;;;;;;;288.27;18.00;;;0.30;99.90;;;;;;6297453;22;20163;-94
2022/01/27 10:36:40;;;;;;;375.17;23.03;;;0.30;99.90;;;;;;6290791;22;20197;-93
2022/01/27 10:39:13;;;;;;;299.80;16.90;;;0.30;99.90;;;;;;6262243;22;20163;-93
2022/01/27 10:41:58;;;;;;;314.93;22.33;;;0.30;99.90;;;;;;6281724;22;20167;-93
2022/01/27 10:44:37;;;;;;;224.00;13.53;;;0.30;99.90;;;;;;6282258;22;20182;-93
2022/01/27 10:47:15;;;;;;;262.00;14.93;;;0.30;99.90;;;;;;6281193;22;20182;-92
2022/01/27 10:49:52;;;;;;;270.13;17.77;;;0.20;99.90;;;;;;6282839;22;20606;-94
2022/01/27 10:52:33;;;;;;;289.13;16.40;;;0.20;99.90;;;;;;6283034;22;20193;-94
2022/01/27 10:55:09;;;;;;;330.20;16.37;;;0.30;99.90;;;;;;6282729;22;20236;-95
2022/01/27 10:57:43;;;;;;;269.13;13.83;;;0.30;99.90;;;;;;6280926;22;20169;-94
2022/01/27 11:00:18;;;;;;;446.90;20.13;;;0.20;99.90;;;;;;6288344;22;20169;-94
2022/01/27 11:02:53;;;;;;;428.10;20.73;;;0.30;99.90;;;;;;6284962;22;20171;-93
2022/01/27 11:05:31;;;;;;;216.33;14.03;;;0.20;99.90;;;;;;6295994;22;20199;-94
2022/01/27 11:08:03;;;;;;;238.03;12.73;;;0.10;99.90;;;;;;6298405;22;20176;-94
2022/01/27 11:10:35;;;;;;;224.47;13.07;;;0.10;99.90;;;;;;6264335;22;20253;-93
2022/01/27 11:13:06;;;;;;;301.17;16.40;;;0.10;99.90;;;;;;6251386;23;20190;-94
2022/01/27 11:15:41;;;;;;;147.63;10.33;;;0.10;99.90;;;;;;6252863;22;20195;-93
2022/01/27 11:18:13;;;;;;;307.90;15.60;;;0.10;99.90;;;;;;6249973;22;20178;-95
2022/01/27 11:20:57;;;;;;;311.80;16.67;;;0.20;99.90;;;;;;6250165;23;20170;-94
2022/01/27 11:26:19;;;;;;;214.77;13.67;;;0.10;99.90;;;;;;6344699;22;20172;-94
2022/01/27 11:28:51;;;;;;;224.70;12.07;;;0.10;99.90;;;;;;6346025;22;20177;-94
2022/01/27 11:31:42;;;;;;;233.20;12.63;;;0.10;99.90;;;;;;6344443;22;20203;-94
2022/01/27 11:34:14;;;;;;;189.20;11.47;;;0.10;99.90;;;;;;6345704;22;20183;-92
2022/01/27 11:37:05;;;;;;;194.33;11.50;;;0.10;99.90;;;;;;6345490;22;20205;-94
2022/01/27 11:39:55;;;;;;;243.57;15.37;;;0.00;99.90;;;;;;6344543;22;20645;-94
2022/01/27 11:43:10;;;;;;;278.13;13.37;;;0.10;99.90;;;;;;6343740;22;20172;-94
2022/01/27 11:45:43;;;;;;;241.80;15.83;;;0.20;99.90;;;;;;6344883;22;20204;-95
2022/01/27 11:48:18;;;;;;;92.87;9.23;;;0.10;99.90;;;;;;6348566;22;20204;-95
2022/01/27 11:50:54;;;;;;;159.10;12.17;;;0.10;99.90;;;;;;6318703;22;20567;-95
2022/01/27 11:53:36;;;;;;;107.80;8.40;;;0.10;99.90;;;;;;6344256;22;20168;-95
2022/01/27 11:56:15;;;;;;;130.10;9.80;;;0.20;99.90;;;;;;6344799;22;20519;-94
2022/01/27 11:58:52;;;;;;;246.40;13.20;;;0.20;99.90;;;;;;6344314;22;20657;-95
2022/01/27 12:01:26;;;;;;;196.30;12.43;;;0.20;99.90;;;;;;6318846;22;20179;-94
2022/01/27 12:04:16;;;;;;;223.33;15.17;;;0.10;99.90;;;;;;6345266;22;20208;-93
2022/01/27 12:07:08;;;;;;;188.70;11.17;;;0.10;99.90;;;;;;6344221;22;20734;-93
2022/01/27 12:09:41;;;;;;;124.17;9.80;;;0.00;99.90;;;;;;6344572;22;20171;-94
2022/01/27 12:12:33;;;;;;;157.87;10.50;;;-0.10;99.90;;;;;;6344371;22;20502;-93
2022/01/27 12:15:11;;;;;;;135.60;12.47;;;-0.20;99.90;;;;;;6344167;22;20182;-94
2022/01/27 12:17:42;;;;;;;43.40;7.33;;;-0.10;99.90;;;;;;6343972;22;20180;-93
2022/01/27 12:20:14;;;;;;;251.73;15.20;;;0.00;99.90;;;;;;6344346;22;20225;-93
2022/01/27 12:23:03;;;;;;;128.77;9.50;;;0.00;99.90;;;;;;6344156;22;20174;-94
2022/01/27 12:26:00;;;;;;;186.43;11.70;;;-0.10;99.90;;;;;;6345213;22;20193;-94
2022/01/27 12:28:37;;;;;;;130.40;12.83;;;-0.10;99.90;;;;;;6345057;22;20166;-93
2022/01/27 12:31:08;;;;;;;265.93;15.70;;;-0.10;99.90;;;;;;6345834;22;20211;-95
2022/01/27 12:33:39;;;;;;;209.67;11.27;;;-0.20;99.90;;;;;;6345995;22;20648;-95
2022/01/27 12:36:10;;;;;;;158.33;10.00;;;-0.20;99.90;;;;;;6347304;22;20618;-95
2022/01/27 12:38:42;;;;;;;120.97;10.20;;;-0.20;99.90;;;;;;6347028;22;20185;-94
2022/01/27 12:41:16;;;;;;;103.07;9.20;;;-0.30;99.90;;;;;;6361515;22;20155;-95
2022/01/27 12:43:47;;;;;;;234.60;12.83;;;-0.20;99.90;;;;;;6367009;22;20169;-94
2022/01/27 12:46:18;;;;;;;97.13;9.73;;;-0.20;99.90;;;;;;6366934;22;20181;-95
2022/01/27 12:48:50;;;;;;;78.40;8.03;;;-0.20;99.90;;;;;;6362824;22;20170;-94
2022/01/27 12:51:55;;;;;;;124.90;10.67;;;-0.20;99.90;;;;;;6364708;22;20183;-94
2022/01/27 12:54:29;;;;;;;104.57;9.80;;;-0.30;99.90;;;;;;6349566;22;20179;-95
2022/01/27 12:57:02;;;;;;;304.30;20.30;;;-0.20;99.90;;;;;;6348290;22;20169;-94
2022/01/27 12:59:35;;;;;;;158.97;9.43;;;-0.20;99.90;;;;;;6346303;22;20192;-96
2022/01/27 13:02:08;;;;;;;160.90;9.93;;;-0.20;99.90;;;;;;6345955;22;20598;-93
2022/01/27 13:04:42;;;;;;;141.53;9.97;;;-0.20;99.90;;;;;;6346119;22;20166;-93
2022/01/27 13:07:13;;;;;;;268.27;12.87;;;-0.20;99.90;;;;;;6320147;22;20209;-93
2022/01/27 13:09:45;;;;;;;181.73;9.93;;;-0.20;99.90;;;;;;6345888;22;20205;-93
2022/01/27 13:12:27;;;;;;;87.97;7.73;;;-0.20;99.90;;;;;;6345428;22;20166;-94
2022/01/27 13:15:06;;;;;;;51.87;7.47;;;-0.30;99.90;;;;;;6345869;22;20184;-94
2022/01/27 13:17:44;;;;;;;37.07;6.63;;;-0.20;99.90;;;;;;6344915;22;20207;-93
2022/01/27 13:20:22;;;;;;;108.50;7.80;;;-0.20;99.90;;;;;;6346260;22;20172;-94
2022/01/27 13:23:00;;;;;;;203.20;13.33;;;-0.20;99.90;;;;;;6349341;22;20180;-94
2022/01/27 13:25:42;;;;;;;246.93;12.33;;;-0.20;99.90;;;;;;6347710;22;20185;-95
2022/01/27 13:28:19;;;;;;;161.43;10.50;;;-0.40;99.90;;;;;;6344270;22;20198;-94
2022/01/27 13:30:52;;;;;;;171.17;12.40;;;-0.40;99.90;;;;;;6347274;22;20189;-94
2022/01/27 13:33:25;;;;;;;114.40;9.20;;;-0.20;99.90;;;;;;6347539;22;20199;-93
2022/01/27 13:35:59;;;;;;;225.37;13.83;;;-0.30;99.90;;;;;;6319949;22;20211;-95
2022/01/27 13:38:38;;;;;;;211.13;11.33;;;-0.20;99.90;;;;;;6345600;22;20168;-95
2022/01/27 13:41:16;;;;;;;234.33;14.53;;;-0.20;99.90;;;;;;6320720;22;20167;-95
2022/01/27 13:43:52;;;;;;;170.20;10.87;;;-0.20;99.90;;;;;;6345932;22;20443;-94
2022/01/27 13:46:40;;;;;;;98.53;8.43;;;-0.20;99.90;;;;;;6346215;22;20721;-94
2022/01/27 13:49:18;;;;;;;321.30;14.40;;;-0.20;99.90;;;;;;6346778;22;20308;-94
2022/01/27 13:51:52;;;;;;;234.23;13.50;;;-0.40;99.90;;;;;;6346326;22;20185;-94
2022/01/27 13:54:24;;;;;;;220.00;13.80;;;-0.50;99.90;;;;;;6347028;22;20187;-95
2022/01/27 13:56:55;;;;;;;126.80;10.20;;;-0.50;99.90;;;;;;6346134;22;20174;-96
2022/01/27 13:59:29;;;;;;;408.60;20.97;;;-0.30;99.90;;;;;;6352337;22;20154;-94
2022/01/27 14:02:18;;;;;;;240.17;12.73;;;-0.30;99.90;;;;;;6338932;22;20176;-93
2022/01/27 14:04:50;;;;;;;213.13;11.67;;;-0.40;99.90;;;;;;6366077;22;20173;-93
2022/01/27 14:07:32;;;;;;;261.73;16.73;;;-0.40;99.90;;;;;;6365199;22;20189;-92